sensor_id;sensor_type;location;lat;lon;timestamp;pressure;altitude;pressure_sealevel;temperature;humidity
8069;BME280;4077;43.702;24.896;2023-04-08T00:02:20;99842.84;;;4.65;100.00
8069;BME280;4077;43.702;24.896;2023-04-08T00:04:45;99830.69;;;4.59;100.00
8069;BME280;4077;43.702;24.896;2023-04-08T00:07:11;99826.69;;;4.66;100.00
8069;BME280;4077;43.702;24.896;2023-04-08T00:09:36;99816.00;;;4.54;100.00
8069;BME280;4077;43.702;24.896;2023-04-08T00:12:03;99822.84;;;4.55;100.00
8069;BME280;4077;43.702;24.896;2023-04-08T00:14:28;99821.72;;;4.69;100.00
8069;BME280;4077;43.702;24.896;2023-04-08T00:16:54;99826.84;;;4.69;100.00
8069;BME280;4077;43.702;24.896;2023-04-08T00:19:20;99816.41;;;4.64;100.00
8069;BME280;4077;43.702;24.896;2023-04-08T00:21:45;99831.03;;;4.67;100.00
8069;BME280;4077;43.702;24.896;2023-04-08T00:24:11;99825.91;;;4.67;100.00
8069;BME280;4077;43.702;24.896;2023-04-08T00:26:37;99821.47;;;4.63;100.00
8069;BME280;4077;43.702;24.896;2023-04-08T00:29:02;99816.97;;;4.57;100.00
8069;BME280;4077;43.702;24.896;2023-04-08T00:31:28;99815.13;;;4.53;100.00
8069;BME280;4077;43.702;24.896;2023-04-08T00:33:53;99827.97;;;4.55;100.00
8069;BME280;4077;43.702;24.896;2023-04-08T00:36:19;99819.34;;;4.53;100.00
8069;BME280;4077;43.702;24.896;2023-04-08T00:38:44;99821.38;;;4.60;100.00
8069;BME280;4077;43.702;24.896;2023-04-08T00:41:12;99815.34;;;4.59;100.00
8069;BME280;4077;43.702;24.896;2023-04-08T00:43:38;99813.88;;;4.64;100.00
8069;BME280;4077;43.702;24.896;2023-04-08T00:46:03;99827.72;;;4.70;100.00
8069;BME280;4077;43.702;24.896;2023-04-08T00:48:29;99814.00;;;4.68;100.00
8069;BME280;4077;43.702;24.896;2023-04-08T00:50:56;99814.72;;;4.65;100.00
8069;BME280;4077;43.702;24.896;2023-04-08T00:53:21;99817.47;;;4.70;100.00
8069;BME280;4077;43.702;24.896;2023-04-08T00:55:47;99820.09;;;4.71;100.00
8069;BME280;4077;43.702;24.896;2023-04-08T00:58:13;99800.25;;;4.65;100.00
8069;BME280;4077;43.702;24.896;2023-04-08T01:00:42;99815.22;;;4.77;100.00
8069;BME280;4077;43.702;24.896;2023-04-08T01:03:16;99815.34;;;4.80;100.00
8069;BME280;4077;43.702;24.896;2023-04-08T01:05:52;99813.69;;;4.81;100.00
8069;BME280;4077;43.702;24.896;2023-04-08T01:08:20;99817.72;;;4.76;100.00
8069;BME280;4077;43.702;24.896;2023-04-08T01:10:50;99816.16;;;4.79;100.00
8069;BME280;4077;43.702;24.896;2023-04-08T01:13:20;99807.31;;;4.71;100.00
8069;BME280;4077;43.702;24.896;2023-04-08T01:15:48;99800.09;;;4.61;100.00
8069;BME280;4077;43.702;24.896;2023-04-08T01:18:14;99790.44;;;4.54;100.00
8069;BME280;4077;43.702;24.896;2023-04-08T01:20:42;99808.69;;;4.63;100.00
8069;BME280;4077;43.702;24.896;2023-04-08T01:23:38;99813.25;;;4.70;100.00
8069;BME280;4077;43.702;24.896;2023-04-08T01:26:05;99819.59;;;4.59;100.00
8069;BME280;4077;43.702;24.896;2023-04-08T01:28:32;99810.19;;;4.58;100.00
8069;BME280;4077;43.702;24.896;2023-04-08T01:30:59;99807.13;;;4.46;100.00
8069;BME280;4077;43.702;24.896;2023-04-08T01:33:26;99811.25;;;4.42;100.00
8069;BME280;4077;43.702;24.896;2023-04-08T01:35:53;99809.47;;;4.39;100.00
8069;BME280;4077;43.702;24.896;2023-04-08T01:38:19;99807.69;;;4.38;100.00
8069;BME280;4077;43.702;24.896;2023-04-08T01:40:48;99810.25;;;4.38;100.00
8069;BME280;4077;43.702;24.896;2023-04-08T01:43:15;99805.78;;;4.33;100.00
8069;BME280;4077;43.702;24.896;2023-04-08T01:45:43;99787.31;;;4.19;100.00
8069;BME280;4077;43.702;24.896;2023-04-08T01:48:11;99805.78;;;4.33;100.00
8069;BME280;4077;43.702;24.896;2023-04-08T01:50:38;99805.53;;;4.27;100.00
8069;BME280;4077;43.702;24.896;2023-04-08T01:53:04;99802.16;;;4.28;100.00
8069;BME280;4077;43.702;24.896;2023-04-08T01:55:33;99800.47;;;4.28;100.00
8069;BME280;4077;43.702;24.896;2023-04-08T01:58:00;99804.22;;;4.36;100.00
8069;BME280;4077;43.702;24.896;2023-04-08T02:00:28;99803.38;;;4.37;100.00
8069;BME280;4077;43.702;24.896;2023-04-08T02:02:54;99814.47;;;4.38;100.00
8069;BME280;4077;43.702;24.896;2023-04-08T02:05:21;99808.38;;;4.34;100.00
8069;BME280;4077;43.702;24.896;2023-04-08T02:07:47;99815.50;;;4.42;100.00
8069;BME280;4077;43.702;24.896;2023-04-08T02:10:13;99812.13;;;4.43;100.00
8069;BME280;4077;43.702;24.896;2023-04-08T02:12:38;99814.00;;;4.47;100.00
8069;BME280;4077;43.702;24.896;2023-04-08T02:15:04;99812.25;;;4.46;100.00
8069;BME280;4077;43.702;24.896;2023-04-08T02:20:23;99800.91;;;4.60;100.00
8069;BME280;4077;43.702;24.896;2023-04-08T02:22:58;99815.78;;;4.70;100.00
8069;BME280;4077;43.702;24.896;2023-04-08T02:25:28;99820.09;;;4.71;100.00
8069;BME280;4077;43.702;24.896;2023-04-08T02:27:54;99832.78;;;4.68;100.00
8069;BME280;4077;43.702;24.896;2023-04-08T02:30:21;99824.34;;;4.71;100.00
8069;BME280;4077;43.702;24.896;2023-04-08T02:32:47;99804.41;;;4.62;100.00
8069;BME280;4077;43.702;24.896;2023-04-08T02:35:14;99823.16;;;4.62;100.00
8069;BME280;4077;43.702;24.896;2023-04-08T02:37:40;99814.63;;;4.62;100.00
8069;BME280;4077;43.702;24.896;2023-04-08T02:40:30;99819.22;;;4.71;100.00
8069;BME280;4077;43.702;24.896;2023-04-08T02:42:56;99818.00;;;4.61;100.00
8069;BME280;4077;43.702;24.896;2023-04-08T02:45:26;99823.72;;;4.55;100.00
8069;BME280;4077;43.702;24.896;2023-04-08T02:47:52;99826.66;;;4.44;100.00
8069;BME280;4077;43.702;24.896;2023-04-08T02:50:17;99825.72;;;4.42;100.00
8069;BME280;4077;43.702;24.896;2023-04-08T02:52:42;99822.09;;;4.36;100.00
8069;BME280;4077;43.702;24.896;2023-04-08T02:55:09;99820.34;;;4.35;100.00
8069;BME280;4077;43.702;24.896;2023-04-08T02:57:39;99828.28;;;4.42;100.00
8069;BME280;4077;43.702;24.896;2023-04-08T03:00:06;99831.38;;;4.34;100.00
8069;BME280;4077;43.702;24.896;2023-04-08T03:02:32;99832.19;;;4.33;100.00
8069;BME280;4077;43.702;24.896;2023-04-08T03:04:58;99835.69;;;4.35;100.00
8069;BME280;4077;43.702;24.896;2023-04-08T03:07:23;99832.19;;;4.33;100.00
8069;BME280;4077;43.702;24.896;2023-04-08T03:09:49;99835.69;;;4.35;100.00
8069;BME280;4077;43.702;24.896;2023-04-08T03:12:15;99835.78;;;4.38;100.00
8069;BME280;4077;43.702;24.896;2023-04-08T03:14:40;99834.94;;;4.38;100.00
8069;BME280;4077;43.702;24.896;2023-04-08T03:17:06;99839.97;;;4.36;100.00
8069;BME280;4077;43.702;24.896;2023-04-08T03:19:31;99830.88;;;4.22;100.00
8069;BME280;4077;43.702;24.896;2023-04-08T03:21:57;99844.16;;;4.34;100.00
8069;BME280;4077;43.702;24.896;2023-04-08T03:24:22;99845.91;;;4.35;100.00
8069;BME280;4077;43.702;24.896;2023-04-08T03:26:48;99844.16;;;4.34;100.00
8069;BME280;4077;43.702;24.896;2023-04-08T03:29:13;99839.88;;;4.33;100.00
8069;BME280;4077;43.702;24.896;2023-04-08T03:31:39;99840.03;;;4.38;100.00
8069;BME280;4077;43.702;24.896;2023-04-08T03:34:04;99840.91;;;4.38;100.00
8069;BME280;4077;43.702;24.896;2023-04-08T03:36:30;99840.78;;;4.35;100.00
8069;BME280;4077;43.702;24.896;2023-04-08T03:38:55;99820.97;;;4.30;100.00
8069;BME280;4077;43.702;24.896;2023-04-08T03:41:21;99843.47;;;4.38;100.00
8069;BME280;4077;43.702;24.896;2023-04-08T03:43:46;99843.72;;;4.45;100.00
8069;BME280;4077;43.702;24.896;2023-04-08T03:46:12;99836.00;;;4.43;100.00
8069;BME280;4077;43.702;24.896;2023-04-08T03:48:37;99837.56;;;4.39;100.00
8069;BME280;4077;43.702;24.896;2023-04-08T03:51:02;99825.34;;;4.32;100.00
8069;BME280;4077;43.702;24.896;2023-04-08T03:53:28;99838.25;;;4.35;100.00
8069;BME280;4077;43.702;24.896;2023-04-08T03:55:55;99839.97;;;4.36;100.00
8069;BME280;4077;43.702;24.896;2023-04-08T03:58:21;99838.78;;;4.28;100.00
8069;BME280;4077;43.702;24.896;2023-04-08T04:00:46;99835.63;;;4.34;100.00
8069;BME280;4077;43.702;24.896;2023-04-08T04:03:12;99838.91;;;4.31;100.00
8069;BME280;4077;43.702;24.896;2023-04-08T04:05:38;99851.03;;;4.35;100.00
8069;BME280;4077;43.702;24.896;2023-04-08T04:08:04;99852.50;;;4.30;100.00
8069;BME280;4077;43.702;24.896;2023-04-08T04:10:29;99853.69;;;4.38;100.00
8069;BME280;4077;43.702;24.896;2023-04-08T04:12:55;99847.09;;;4.44;100.00
8069;BME280;4077;43.702;24.896;2023-04-08T04:15:20;99864.13;;;4.64;100.00
8069;BME280;4077;43.702;24.896;2023-04-08T04:17:49;99860.25;;;4.53;100.00
8069;BME280;4077;43.702;24.896;2023-04-08T04:20:15;99863.50;;;4.49;100.00
8069;BME280;4077;43.702;24.896;2023-04-08T04:22:41;99868.88;;;4.55;100.00
8069;BME280;4077;43.702;24.896;2023-04-08T04:25:11;99866.38;;;4.56;100.00
8069;BME280;4077;43.702;24.896;2023-04-08T04:27:37;99871.97;;;4.48;100.00
8069;BME280;4077;43.702;24.896;2023-04-08T04:30:02;99866.97;;;4.51;100.00
8069;BME280;4077;43.702;24.896;2023-04-08T04:32:28;99856.75;;;4.51;100.00
8069;BME280;4077;43.702;24.896;2023-04-08T04:34:54;99855.28;;;4.56;100.00
8069;BME280;4077;43.702;24.896;2023-04-08T04:37:19;99871.28;;;4.73;100.00
8069;BME280;4077;43.702;24.896;2023-04-08T04:39:45;99851.28;;;4.62;100.00
8069;BME280;4077;43.702;24.896;2023-04-08T04:42:11;99878.34;;;4.78;100.00
8069;BME280;4077;43.702;24.896;2023-04-08T04:44:36;99856.19;;;4.79;100.00
8069;BME280;4077;43.702;24.896;2023-04-08T04:47:02;99876.66;;;5.00;100.00
8069;BME280;4077;43.702;24.896;2023-04-08T04:49:28;99872.47;;;5.02;100.00
8069;BME280;4077;43.702;24.896;2023-04-08T04:51:53;99882.94;;;5.08;100.00
8069;BME280;4077;43.702;24.896;2023-04-08T04:54:19;99874.56;;;5.12;100.00
8069;BME280;4077;43.702;24.896;2023-04-08T04:56:44;99877.38;;;5.18;100.00
8069;BME280;4077;43.702;24.896;2023-04-08T04:59:10;99880.84;;;5.20;100.00
8069;BME280;4077;43.702;24.896;2023-04-08T05:01:35;99870.53;;;5.17;100.00
8069;BME280;4077;43.702;24.896;2023-04-08T05:04:01;99879.69;;;5.34;100.00
8069;BME280;4077;43.702;24.896;2023-04-08T05:06:26;99881.09;;;5.48;100.00
8069;BME280;4077;43.702;24.896;2023-04-08T05:08:52;99885.81;;;5.60;100.00
8069;BME280;4077;43.702;24.896;2023-04-08T05:11:18;99892.28;;;5.73;100.00
8069;BME280;4077;43.702;24.896;2023-04-08T05:13:44;99897.28;;;5.92;100.00
8069;BME280;4077;43.702;24.896;2023-04-08T05:16:09;99886.91;;;6.12;100.00
8069;BME280;4077;43.702;24.896;2023-04-08T05:18:35;99889.94;;;6.25;100.00
8069;BME280;4077;43.702;24.896;2023-04-08T05:21:01;99901.69;;;6.44;100.00
8069;BME280;4077;43.702;24.896;2023-04-08T05:23:26;99902.78;;;6.76;100.00
8069;BME280;4077;43.702;24.896;2023-04-08T05:25:52;99903.06;;;7.11;100.00
8069;BME280;4077;43.702;24.896;2023-04-08T05:28:17;99904.59;;;7.33;100.00
8069;BME280;4077;43.702;24.896;2023-04-08T05:30:48;99905.44;;;7.60;100.00
8069;BME280;4077;43.702;24.896;2023-04-08T05:33:14;99897.16;;;7.69;100.00
8069;BME280;4077;43.702;24.896;2023-04-08T05:35:39;99885.16;;;7.70;100.00
8069;BME280;4077;43.702;24.896;2023-04-08T05:38:05;99901.09;;;7.88;100.00
8069;BME280;4077;43.702;24.896;2023-04-08T05:40:31;99912.81;;;8.08;100.00
8069;BME280;4077;43.702;24.896;2023-04-08T05:42:57;99907.28;;;8.25;100.00
8069;BME280;4077;43.702;24.896;2023-04-08T05:45:22;99911.31;;;8.45;100.00
8069;BME280;4077;43.702;24.896;2023-04-08T05:47:48;99917.06;;;8.69;100.00
8069;BME280;4077;43.702;24.896;2023-04-08T05:50:13;99913.13;;;8.82;100.00
8069;BME280;4077;43.702;24.896;2023-04-08T05:52:42;99923.75;;;8.96;100.00
8069;BME280;4077;43.702;24.896;2023-04-08T05:55:12;99921.69;;;8.81;100.00
8069;BME280;4077;43.702;24.896;2023-04-08T05:57:38;99922.59;;;8.85;100.00
8069;BME280;4077;43.702;24.896;2023-04-08T06:00:08;99886.03;;;8.63;100.00
8069;BME280;4077;43.702;24.896;2023-04-08T06:02:34;99903.28;;;8.66;100.00
8069;BME280;4077;43.702;24.896;2023-04-08T06:05:01;99910.41;;;9.12;100.00
8069;BME280;4077;43.702;24.896;2023-04-08T06:07:28;99920.59;;;9.44;100.00
8069;BME280;4077;43.702;24.896;2023-04-08T06:09:53;99907.66;;;9.41;100.00
8069;BME280;4077;43.702;24.896;2023-04-08T06:12:19;99921.25;;;9.34;100.00
8069;BME280;4077;43.702;24.896;2023-04-08T06:14:44;99917.13;;;9.42;100.00
8069;BME280;4077;43.702;24.896;2023-04-08T06:17:10;99917.47;;;9.57;100.00
8069;BME280;4077;43.702;24.896;2023-04-08T06:19:36;99926.16;;;10.01;99.84
8069;BME280;4077;43.702;24.896;2023-04-08T06:22:01;99938.84;;;10.31;94.08
8069;BME280;4077;43.702;24.896;2023-04-08T06:24:27;99921.59;;;10.77;89.03
8069;BME280;4077;43.702;24.896;2023-04-08T06:26:54;99918.84;;;11.18;85.96
8069;BME280;4077;43.702;24.896;2023-04-08T06:29:22;99940.13;;;11.58;80.56
8069;BME280;4077;43.702;24.896;2023-04-08T06:31:49;99938.91;;;10.81;80.03
8069;BME280;4077;43.702;24.896;2023-04-08T06:34:14;99922.69;;;10.41;82.51
8069;BME280;4077;43.702;24.896;2023-04-08T06:36:40;99929.41;;;10.33;84.21
8069;BME280;4077;43.702;24.896;2023-04-08T06:39:06;99926.38;;;10.56;83.59
8069;BME280;4077;43.702;24.896;2023-04-08T06:41:31;99933.31;;;11.05;81.14
8069;BME280;4077;43.702;24.896;2023-04-08T06:43:56;99938.94;;;11.34;79.56
8069;BME280;4077;43.702;24.896;2023-04-08T06:46:22;99945.88;;;11.96;77.42
8069;BME280;4077;43.702;24.896;2023-04-08T06:48:47;99948.75;;;11.57;75.70
8069;BME280;4077;43.702;24.896;2023-04-08T06:51:13;99925.50;;;11.58;77.58
8069;BME280;4077;43.702;24.896;2023-04-08T06:53:38;99918.47;;;11.48;76.01
8069;BME280;4077;43.702;24.896;2023-04-08T06:56:04;99936.66;;;11.56;75.25
8069;BME280;4077;43.702;24.896;2023-04-08T06:58:29;99945.75;;;11.31;76.24
8069;BME280;4077;43.702;24.896;2023-04-08T07:00:55;99946.84;;;11.45;75.33
8069;BME280;4077;43.702;24.896;2023-04-08T07:03:22;99938.03;;;11.88;73.56
8069;BME280;4077;43.702;24.896;2023-04-08T07:05:47;99946.81;;;11.43;74.63
8069;BME280;4077;43.702;24.896;2023-04-08T07:08:13;99947.03;;;11.59;76.38
8069;BME280;4077;43.702;24.896;2023-04-08T07:10:38;99952.91;;;12.08;73.51
8069;BME280;4077;43.702;24.896;2023-04-08T07:13:04;99953.81;;;12.90;71.33
8069;BME280;4077;43.702;24.896;2023-04-08T07:15:30;99947.94;;;13.06;67.00
8069;BME280;4077;43.702;24.896;2023-04-08T07:17:55;99955.06;;;13.27;69.95
8069;BME280;4077;43.702;24.896;2023-04-08T07:20:22;99957.31;;;14.09;65.85
8069;BME280;4077;43.702;24.896;2023-04-08T07:22:48;99961.84;;;14.50;64.22
8069;BME280;4077;43.702;24.896;2023-04-08T07:25:14;99963.63;;;14.69;61.58
8069;BME280;4077;43.702;24.896;2023-04-08T07:27:39;99968.84;;;14.75;60.61
8069;BME280;4077;43.702;24.896;2023-04-08T07:30:06;99951.44;;;14.53;59.32
8069;BME280;4077;43.702;24.896;2023-04-08T07:32:32;99965.34;;;14.67;59.83
8069;BME280;4077;43.702;24.896;2023-04-08T07:34:58;99971.47;;;15.01;59.46
8069;BME280;4077;43.702;24.896;2023-04-08T07:37:24;99965.38;;;14.95;58.13
8069;BME280;4077;43.702;24.896;2023-04-08T07:39:49;99986.22;;;15.10;58.74
8069;BME280;4077;43.702;24.896;2023-04-08T07:42:15;99974.09;;;15.11;58.27
8069;BME280;4077;43.702;24.896;2023-04-08T07:44:41;99969.75;;;15.19;58.79
8069;BME280;4077;43.702;24.896;2023-04-08T07:47:06;99978.44;;;15.18;57.62
8069;BME280;4077;43.702;24.896;2023-04-08T07:49:33;99981.03;;;15.31;58.63
8069;BME280;4077;43.702;24.896;2023-04-08T07:51:58;99985.34;;;15.37;56.73
8069;BME280;4077;43.702;24.896;2023-04-08T07:54:24;99970.63;;;15.33;57.53
8069;BME280;4077;43.702;24.896;2023-04-08T07:56:49;99967.97;;;14.80;58.48
8069;BME280;4077;43.702;24.896;2023-04-08T07:59:14;99980.06;;;14.65;59.24
8069;BME280;4077;43.702;24.896;2023-04-08T08:01:40;99983.50;;;14.58;59.18
8069;BME280;4077;43.702;24.896;2023-04-08T08:04:05;99972.25;;;14.56;56.75
8069;BME280;4077;43.702;24.896;2023-04-08T08:06:31;99956.47;;;14.19;57.00
8069;BME280;4077;43.702;24.896;2023-04-08T08:08:57;99974.75;;;14.39;56.45
8069;BME280;4077;43.702;24.896;2023-04-08T08:11:23;99977.50;;;14.77;57.66
8069;BME280;4077;43.702;24.896;2023-04-08T08:13:48;99982.66;;;14.62;57.61
8069;BME280;4077;43.702;24.896;2023-04-08T08:16:14;99981.81;;;14.65;57.87
8069;BME280;4077;43.702;24.896;2023-04-08T08:18:39;99986.16;;;14.80;55.13
8069;BME280;4077;43.702;24.896;2023-04-08T08:21:05;99992.22;;;14.80;55.71
8069;BME280;4077;43.702;24.896;2023-04-08T08:23:31;99959.16;;;14.41;56.21
8069;BME280;4077;43.702;24.896;2023-04-08T08:26:07;99980.88;;;14.52;56.72
8069;BME280;4077;43.702;24.896;2023-04-08T08:28:36;99993.88;;;14.49;57.24
8069;BME280;4077;43.702;24.896;2023-04-08T08:31:01;99995.66;;;14.64;56.89
8069;BME280;4077;43.702;24.896;2023-04-08T08:33:27;99975.53;;;14.18;56.13
8069;BME280;4077;43.702;24.896;2023-04-08T08:35:53;99990.13;;;13.95;57.50
8069;BME280;4077;43.702;24.896;2023-04-08T08:38:19;99966.59;;;13.67;57.50
8069;BME280;4077;43.702;24.896;2023-04-08T08:40:45;99977.97;;;13.88;57.62
8069;BME280;4077;43.702;24.896;2023-04-08T08:43:10;99982.38;;;14.04;57.97
8069;BME280;4077;43.702;24.896;2023-04-08T08:45:40;99983.31;;;14.15;58.15
8069;BME280;4077;43.702;24.896;2023-04-08T08:48:06;99981.78;;;14.57;59.80
8069;BME280;4077;43.702;24.896;2023-04-08T08:50:33;99989.63;;;14.72;57.23
8069;BME280;4077;43.702;24.896;2023-04-08T08:52:59;99982.69;;;14.81;56.09
8069;BME280;4077;43.702;24.896;2023-04-08T08:55:25;99994.78;;;14.63;56.64
8069;BME280;4077;43.702;24.896;2023-04-08T08:57:51;99986.13;;;14.55;56.44
8069;BME280;4077;43.702;24.896;2023-04-08T09:00:16;99990.41;;;14.50;55.63
8069;BME280;4077;43.702;24.896;2023-04-08T09:02:42;99983.25;;;14.02;55.68
8069;BME280;4077;43.702;24.896;2023-04-08T09:05:08;99993.66;;;14.09;56.27
8069;BME280;4077;43.702;24.896;2023-04-08T09:07:35;99991.78;;;13.82;57.00
8069;BME280;4077;43.702;24.896;2023-04-08T09:10:01;99990.31;;;14.33;56.68
8069;BME280;4077;43.702;24.896;2023-04-08T09:12:27;99977.25;;;14.19;55.80
8069;BME280;4077;43.702;24.896;2023-04-08T09:15:08;99984.22;;;14.23;56.94
8069;BME280;4077;43.702;24.896;2023-04-08T09:17:40;99991.13;;;14.24;56.45
8069;BME280;4077;43.702;24.896;2023-04-08T09:20:11;99985.28;;;14.81;55.31
8069;BME280;4077;43.702;24.896;2023-04-08T09:25:25;99999.13;;;14.75;53.93
8069;BME280;4077;43.702;24.896;2023-04-08T09:27:51;99985.28;;;14.73;54.39
8069;BME280;4077;43.702;24.896;2023-04-08T09:30:17;99991.38;;;14.95;54.89
8069;BME280;4077;43.702;24.896;2023-04-08T09:32:50;99977.56;;;15.19;55.10
8069;BME280;4077;43.702;24.896;2023-04-08T09:35:18;99994.91;;;15.70;55.29
8069;BME280;4077;43.702;24.896;2023-04-08T09:37:43;100013.03;;;16.11;52.58
8069;BME280;4077;43.702;24.896;2023-04-08T09:40:09;100002.69;;;15.55;52.17
8069;BME280;4077;43.702;24.896;2023-04-08T09:42:39;99990.53;;;14.84;54.12
8069;BME280;4077;43.702;24.896;2023-04-08T09:45:05;100002.66;;;14.92;55.10
8069;BME280;4077;43.702;24.896;2023-04-08T09:47:36;100003.50;;;14.88;54.03
8069;BME280;4077;43.702;24.896;2023-04-08T09:50:05;100000.94;;;14.90;54.11
8069;BME280;4077;43.702;24.896;2023-04-08T09:52:38;100006.03;;;14.58;55.46
8069;BME280;4077;43.702;24.896;2023-04-08T09:55:08;99996.34;;;14.34;55.00
8069;BME280;4077;43.702;24.896;2023-04-08T09:57:50;99993.78;;;14.37;55.72
8069;BME280;4077;43.702;24.896;2023-04-08T10:00:17;99991.13;;;14.21;56.12
8069;BME280;4077;43.702;24.896;2023-04-08T10:02:55;99981.41;;;13.84;55.95
8069;BME280;4077;43.702;24.896;2023-04-08T10:05:25;99995.16;;;13.71;57.94
8069;BME280;4077;43.702;24.896;2023-04-08T10:07:51;99995.91;;;13.53;58.10
8069;BME280;4077;43.702;24.896;2023-04-08T10:10:17;99994.19;;;13.58;57.47
8069;BME280;4077;43.702;24.896;2023-04-08T10:12:43;99991.75;;;13.79;57.58
8069;BME280;4077;43.702;24.896;2023-04-08T10:15:28;99989.97;;;13.71;57.50
8069;BME280;4077;43.702;24.896;2023-04-08T10:20:45;99997.25;;;14.34;56.33
8069;BME280;4077;43.702;24.896;2023-04-08T10:23:17;99992.66;;;13.83;57.36
8069;BME280;4077;43.702;24.896;2023-04-08T10:25:43;99983.03;;;13.69;55.96
8069;BME280;4077;43.702;24.896;2023-04-08T10:30:57;99992.50;;;13.61;57.17
8069;BME280;4077;43.702;24.896;2023-04-08T10:38:39;99961.84;;;14.48;55.38
8069;BME280;4077;43.702;24.896;2023-04-08T10:41:08;99981.75;;;14.53;54.93
8069;BME280;4077;43.702;24.896;2023-04-08T10:43:34;99973.91;;;14.42;55.01
8069;BME280;4077;43.702;24.896;2023-04-08T10:46:01;99961.78;;;14.44;54.88
8069;BME280;4077;43.702;24.896;2023-04-08T10:48:27;99973.00;;;14.31;55.23
8069;BME280;4077;43.702;24.896;2023-04-08T10:53:32;99973.88;;;14.39;55.42
8069;BME280;4077;43.702;24.896;2023-04-08T10:56:12;99976.41;;;14.25;55.04
8069;BME280;4077;43.702;24.896;2023-04-08T10:58:51;99970.19;;;13.92;55.46
8069;BME280;4077;43.702;24.896;2023-04-08T11:01:18;99972.69;;;13.76;55.72
8069;BME280;4077;43.702;24.896;2023-04-08T11:03:44;99975.41;;;13.94;55.60
8069;BME280;4077;43.702;24.896;2023-04-08T11:06:10;99972.06;;;14.19;54.87
8069;BME280;4077;43.702;24.896;2023-04-08T11:08:36;99973.81;;;14.27;54.90
8069;BME280;4077;43.702;24.896;2023-04-08T11:11:03;99968.56;;;14.11;55.63
8069;BME280;4077;43.702;24.896;2023-04-08T11:13:33;99960.78;;;14.11;55.11
8069;BME280;4077;43.702;24.896;2023-04-08T11:15:58;99963.34;;;14.05;56.14
8069;BME280;4077;43.702;24.896;2023-04-08T11:18:24;99963.47;;;14.33;55.59
8069;BME280;4077;43.702;24.896;2023-04-08T11:20:52;99966.09;;;14.37;55.85
8069;BME280;4077;43.702;24.896;2023-04-08T11:23:18;99966.13;;;14.42;55.55
8069;BME280;4077;43.702;24.896;2023-04-08T11:25:45;99961.03;;;14.62;55.66
8069;BME280;4077;43.702;24.896;2023-04-08T11:28:11;99961.84;;;14.52;55.55
8069;BME280;4077;43.702;24.896;2023-04-08T11:30:38;99955.78;;;14.49;54.94
8069;BME280;4077;43.702;24.896;2023-04-08T11:33:04;99949.50;;;14.06;55.65
8069;BME280;4077;43.702;24.896;2023-04-08T11:35:31;99953.09;;;14.40;55.88
8069;BME280;4077;43.702;24.896;2023-04-08T11:37:56;99951.34;;;14.29;54.38
8069;BME280;4077;43.702;24.896;2023-04-08T11:40:23;99946.91;;;14.00;56.10
8069;BME280;4077;43.702;24.896;2023-04-08T11:42:49;99952.13;;;14.08;56.03
8069;BME280;4077;43.702;24.896;2023-04-08T11:45:17;99953.09;;;14.36;55.35
8069;BME280;4077;43.702;24.896;2023-04-08T11:47:43;99944.41;;;14.21;54.42
8069;BME280;4077;43.702;24.896;2023-04-08T11:50:10;99953.03;;;14.17;55.33
8069;BME280;4077;43.702;24.896;2023-04-08T11:52:46;99945.22;;;14.17;55.89
8069;BME280;4077;43.702;24.896;2023-04-08T11:55:22;99943.44;;;14.04;55.17
8069;BME280;4077;43.702;24.896;2023-04-08T11:57:48;99939.88;;;13.82;55.50
8069;BME280;4077;43.702;24.896;2023-04-08T12:00:14;99945.97;;;13.92;55.53
8069;BME280;4077;43.702;24.896;2023-04-08T12:02:39;99934.66;;;13.78;55.80
8069;BME280;4077;43.702;24.896;2023-04-08T12:05:05;99935.75;;;14.22;56.01
8069;BME280;4077;43.702;24.896;2023-04-08T12:07:31;99940.22;;;14.56;55.57
8069;BME280;4077;43.702;24.896;2023-04-08T12:09:57;99939.34;;;14.58;55.40
8069;BME280;4077;43.702;24.896;2023-04-08T12:12:22;99941.03;;;14.47;55.00
8069;BME280;4077;43.702;24.896;2023-04-08T12:14:48;99939.22;;;14.28;54.95
8069;BME280;4077;43.702;24.896;2023-04-08T12:17:14;99934.91;;;14.28;55.75
8069;BME280;4077;43.702;24.896;2023-04-08T12:19:39;99934.91;;;14.39;55.24
8069;BME280;4077;43.702;24.896;2023-04-08T12:22:05;99936.56;;;14.18;55.32
8069;BME280;4077;43.702;24.896;2023-04-08T12:24:30;99918.41;;;14.20;55.96
8069;BME280;4077;43.702;24.896;2023-04-08T12:26:56;99932.31;;;14.39;55.78
8069;BME280;4077;43.702;24.896;2023-04-08T12:29:21;99933.28;;;14.48;55.14
8069;BME280;4077;43.702;24.896;2023-04-08T12:31:47;99931.41;;;14.21;54.39
8069;BME280;4077;43.702;24.896;2023-04-08T12:34:12;99925.31;;;14.13;55.38
8069;BME280;4077;43.702;24.896;2023-04-08T12:36:38;99924.47;;;14.19;55.41
8069;BME280;4077;43.702;24.896;2023-04-08T12:39:03;99918.34;;;14.00;55.22
8069;BME280;4077;43.702;24.896;2023-04-08T12:41:28;99905.34;;;13.95;55.83
8069;BME280;4077;43.702;24.896;2023-04-08T12:43:54;99909.72;;;14.07;54.94
8069;BME280;4077;43.702;24.896;2023-04-08T12:46:19;99916.59;;;13.99;54.85
8069;BME280;4077;43.702;24.896;2023-04-08T12:48:45;99914.88;;;14.04;54.52
8069;BME280;4077;43.702;24.896;2023-04-08T12:51:12;99917.56;;;14.27;54.21
8069;BME280;4077;43.702;24.896;2023-04-08T12:53:37;99912.50;;;14.50;55.65
8069;BME280;4077;43.702;24.896;2023-04-08T12:56:03;99918.53;;;14.52;54.33
8069;BME280;4077;43.702;24.896;2023-04-08T12:58:29;99906.41;;;14.53;54.35
8069;BME280;4077;43.702;24.896;2023-04-08T13:00:54;99911.63;;;14.56;53.90
8069;BME280;4077;43.702;24.896;2023-04-08T13:03:20;99904.63;;;14.44;54.23
8069;BME280;4077;43.702;24.896;2023-04-08T13:05:46;99898.56;;;14.45;54.54
8069;BME280;4077;43.702;24.896;2023-04-08T13:08:11;99902.91;;;14.37;54.12
8069;BME280;4077;43.702;24.896;2023-04-08T13:10:37;99902.94;;;14.54;53.00
8069;BME280;4077;43.702;24.896;2023-04-08T13:13:02;99899.50;;;14.50;52.89
8069;BME280;4077;43.702;24.896;2023-04-08T13:15:28;99894.22;;;14.29;53.46
8069;BME280;4077;43.702;24.896;2023-04-08T13:17:53;99895.91;;;14.20;54.11
8069;BME280;4077;43.702;24.896;2023-04-08T13:20:20;99882.94;;;14.16;54.77
8069;BME280;4077;43.702;24.896;2023-04-08T13:22:50;99868.03;;;13.67;55.82
8069;BME280;4077;43.702;24.896;2023-04-08T13:25:17;99881.91;;;13.73;56.82
8069;BME280;4077;43.702;24.896;2023-04-08T13:27:43;99881.91;;;13.79;56.50